Terminal Aerodrome Forecast
Issued by NWS

Home | Current Version | Previous Version | Text Only | Print | Product List | Glossary On
Versions: 1 2 3 4 5 6 7 8 9 10 11 12 13 14 15
177
FTUS43 KLSX 161740
TAFCPS
TAF
KCPS 161740Z 1618/1718 30017G27KT P6SM BKN040
     FM162000 30016G26KT P6SM SCT110
     FM170200 30010G16KT P6SM SKC
     FM171700 13004KT P6SM FEW120=

USA.gov is the U.S. government's official web portal to all federal, state and local government web resources and services.